Terminal Aerodrome Forecast
Issued by NWS

Home | Current Version | Previous Version | Text Only | Print | Product List | Glossary On
Versions: 1 2 3 4 5 6 7 8 9 10 11 12 13 14
236
FTUS43 KGRR 230907 AAA
TAFJXN
TAF AMD
KJXN 230907Z 2309/2406 VRB03KT 3SM BR SKC
      TEMPO 2309/2311 3/4SM BR SKC
     FM231100 VRB03KT 3/4SM BR BKN002
     FM231300 VRB03KT 3SM BR SCT002
     FM231400 28005KT P6SM FEW050=

USA.gov is the U.S. government's official web portal to all federal, state and local government web resources and services.